Time;durP1;ratioP1;P1;durP2;ratioP2;P2;SDS_P1;SDS_P2;PMS_P1;PMS_P2;Temp;Humidity;BMP_temperature;BMP_pressure;BME280_temperature;BME280_humidity;BME280_pressure;Samples;Min_cycle;Max_cycle;Signal;HPM_P1;HPM_P2
2021/01/31 00:00:21;;;;;;;;;;;2.60;99.90;;;1.21;94.83;93864.69;10331285;28;2351;-84
2021/01/31 00:05:23;;;;;;;;;;;3.40;99.90;;;1.19;95.21;93874.75;10337661;28;2088;-82
2021/01/31 00:10:25;;;;;;;;;;;3.40;99.90;;;1.13;95.12;93871.31;10314857;28;2385;-84
2021/01/31 00:15:28;;;;;;;;;;;2.30;99.90;;;1.11;94.87;93875.28;10322298;28;2299;-84
2021/01/31 00:20:30;;;;;;;;;;;2.10;99.90;;;1.06;95.22;93873.41;10347895;28;2569;-83
2021/01/31 00:25:33;;;;;;;;;;;2.10;99.90;;;1.01;95.37;93874.19;10331481;28;1965;-84
2021/01/31 00:30:35;;;;;;;;;;;2.60;99.90;;;0.86;95.08;93878.63;10330906;28;2245;-83
2021/01/31 00:35:39;;;;;;;;;;;3.20;99.90;;;0.72;95.57;93878.31;10334437;28;2203;-83
2021/01/31 00:40:40;;;;;;;;;;;2.10;99.90;;;0.65;95.81;93881.19;10371415;28;2236;-85
2021/01/31 00:45:43;;;;;;;;;;;1.80;99.90;;;0.62;95.73;93878.28;10369273;28;2307;-80
2021/01/31 00:50:44;;;;;;;;;;;1.70;99.90;;;0.64;96.42;93878.81;10355393;28;2262;-84
2021/01/31 00:55:46;;;;;;;;;;;2.10;99.90;;;0.49;96.10;93877.69;10341401;28;2326;-83
2021/01/31 01:00:48;;;;;;;;;;;3.30;99.90;;;0.34;96.07;93880.25;10341760;28;2018;-84
2021/01/31 01:05:50;;;;;;;;;;;1.50;99.90;;;0.22;96.17;93884.94;10304998;28;2078;-82
2021/01/31 01:10:52;;;;;;;;;;;3.40;99.90;;;0.22;96.36;93901.59;10346918;28;2177;-84
2021/01/31 01:15:54;;;;;;;;;;;1.40;99.90;;;0.05;96.32;93898.28;10348684;28;2344;-83
2021/01/31 01:20:56;;;;;;;;;;;2.30;99.90;;;0.04;96.44;93901.19;10338712;28;2356;-84
2021/01/31 01:25:58;;;;;;;;;;;1.10;99.90;;;-0.04;96.58;93900.63;10306145;28;2405;-84
2021/01/31 01:31:00;;;;;;;;;;;1.60;99.90;;;-0.12;96.85;93897.66;10326302;28;2294;-82
2021/01/31 01:36:05;;;;;;;;;;;1.70;99.90;;;-0.12;96.66;93893.16;10357559;28;2595;-82
2021/01/31 01:41:07;;;;;;;;;;;1.90;99.90;;;-0.06;96.92;93905.38;10354493;28;2310;-81
2021/01/31 01:46:09;;;;;;;;;;;1.00;99.90;;;-0.12;96.85;93903.75;10333101;28;2196;-83
2021/01/31 01:51:11;;;;;;;;;;;1.70;99.90;;;-0.18;96.34;93910.03;10329920;28;2583;-83
2021/01/31 01:56:13;;;;;;;;;;;0.90;99.90;;;-0.28;96.73;93915.22;10330162;28;2326;-85
2021/01/31 02:01:15;;;;;;;;;;;1.50;99.90;;;-0.37;96.72;93919.38;10344560;28;2380;-83
2021/01/31 02:06:17;;;;;;;;;;;0.70;99.90;;;-0.46;96.53;93915.56;10331358;28;2236;-84
2021/01/31 02:11:20;;;;;;;;;;;0.60;99.90;;;-0.52;96.78;93912.09;10335751;28;2365;-83
2021/01/31 02:16:22;;;;;;;;;;;0.60;99.90;;;-0.52;96.65;93921.84;10302316;28;2200;-83
2021/01/31 02:21:24;;;;;;;;;;;0.60;99.90;;;-0.60;96.07;93933.66;10313254;28;2214;-83
2021/01/31 02:26:26;;;;;;;;;;;0.50;99.90;;;-0.60;96.03;93926.53;10340598;28;2291;-82
2021/01/31 02:31:28;;;;;;;;;;;1.00;99.90;;;-0.56;95.96;93938.19;10316204;28;2475;-83
2021/01/31 02:36:29;;;;;;;;;;;1.00;99.90;;;-0.61;95.94;93942.63;10330837;28;2170;-82
2021/01/31 02:41:32;;;;;;;;;;;1.10;99.90;;;-0.59;95.72;93930.75;10337614;28;2093;-84
2021/01/31 02:46:33;;;;;;;;;;;1.80;99.90;;;-0.64;95.84;93930.72;10351187;28;2291;-81
2021/01/31 02:51:35;;;;;;;;;;;1.50;99.90;;;-0.79;95.62;93933.19;10350454;28;2433;-83
2021/01/31 02:56:37;;;;;;;;;;;0.30;99.90;;;-0.81;95.22;93943.22;10324927;28;2119;-84
2021/01/31 03:01:39;;;;;;;;;;;0.30;99.90;;;-0.88;95.55;93932.06;10340609;28;2565;-83
2021/01/31 03:06:43;;;;;;;;;;;0.20;99.90;;;-0.77;95.70;93943.50;10318055;28;2490;-84
2021/01/31 03:11:45;;;;;;;;;;;0.30;99.90;;;-0.86;95.60;93943.94;10325281;28;2459;-83
2021/01/31 03:16:47;;;;;;;;;;;0.20;99.90;;;-0.95;95.22;93948.06;10329217;28;2192;-84
2021/01/31 03:21:54;;;;;;;;;;;1.60;99.90;;;-0.90;96.40;93948.13;10336193;28;2459;-82
2021/01/31 03:26:56;;;;;;;;;;;0.10;99.90;;;-0.85;96.02;93944.75;10339451;28;1903;-84
2021/01/31 03:32:00;;;;;;;;;;;1.70;99.90;;;-0.85;96.02;93957.94;10337915;28;2318;-81
2021/01/31 03:37:09;;;;;;;;;;;1.20;99.90;;;-0.84;95.74;93964.78;10333950;28;1965;-80
2021/01/31 03:42:13;;;;;;;;;;;1.80;99.90;;;-0.80;95.92;93976.47;10356940;28;2510;-82
2021/01/31 03:47:22;;;;;;;;;;;0.20;99.90;;;-0.78;96.17;93974.38;10340757;28;2142;-82
2021/01/31 03:52:32;;;;;;;;;;;1.90;99.90;;;-0.77;96.07;93975.16;10351341;28;2449;-84
2021/01/31 03:57:46;;;;;;;;;;;1.70;99.90;;;-0.92;95.53;93988.97;10349005;28;1571;-84
2021/01/31 04:02:52;;;;;;;;;;;0.40;99.90;;;-0.93;95.94;93992.66;10377736;28;2462;-83
2021/01/31 05:02:51;;;;;;;;;;;-0.10;99.90;;;-1.12;93.73;94043.06;10390175;28;2460;-82
2021/01/31 05:08:07;;;;;;;;;;;-0.20;99.90;;;-1.12;94.18;94053.59;10391183;28;2477;-84
2021/01/31 05:13:26;;;;;;;;;;;1.50;99.90;;;-1.13;94.86;94059.13;10404687;28;2402;-81
2021/01/31 05:19:07;;;;;;;;;;;1.40;99.90;;;-1.25;93.53;94055.78;10428918;28;2097;-84
2021/01/31 05:24:14;;;;;;;;;;;-0.30;99.90;;;-1.41;94.09;94068.72;10407859;28;2093;-84
2021/01/31 05:29:17;;;;;;;;;;;1.20;99.90;;;-1.38;94.08;94072.75;10429776;28;2061;-83
2021/01/31 05:34:19;;;;;;;;;;;-0.30;99.90;;;-1.39;94.32;94074.59;10451983;28;2100;-82
2021/01/31 05:39:22;;;;;;;;;;;-0.40;99.90;;;-1.39;94.56;94073.78;10411690;28;2163;-85
2021/01/31 05:44:27;;;;;;;;;;;1.10;99.90;;;-1.49;94.11;94086.78;10404562;28;2269;-85
2021/01/31 05:49:31;;;;;;;;;;;-0.50;99.90;;;-1.53;93.31;94090.94;10437610;28;2380;-85
2021/01/31 05:54:33;;;;;;;;;;;1.30;99.90;;;-1.52;93.60;94106.53;10426102;28;2408;-82
2021/01/31 05:59:39;;;;;;;;;;;-0.40;99.90;;;-1.52;93.65;94105.72;10438717;28;2651;-83
2021/01/31 06:04:41;;;;;;;;;;;0.50;99.90;;;-1.61;93.18;94117.69;10402904;28;2455;-84
2021/01/31 06:09:46;;;;;;;;;;;0.00;99.90;;;-1.58;93.50;94123.28;10437705;28;2392;-83
2021/01/31 06:14:50;;;;;;;;;;;1.10;99.90;;;-1.64;92.42;94124.25;10412476;28;2503;-84
2021/01/31 06:19:53;;;;;;;;;;;0.80;99.90;;;-1.51;93.19;94118.66;10429036;28;2275;-84
2021/01/31 06:24:55;;;;;;;;;;;1.10;99.90;;;-1.64;93.18;94117.13;10416707;28;2427;-84
2021/01/31 06:29:56;;;;;;;;;;;-0.40;99.90;;;-1.74;92.76;94126.69;10429718;28;2511;-84
2021/01/31 06:35:03;;;;;;;;;;;-0.70;99.90;;;-1.87;92.83;94127.78;10398489;28;1802;-84
2021/01/31 06:40:05;;;;;;;;;;;-0.30;99.90;;;-1.71;93.06;94123.59;10423063;28;2476;-84
2021/01/31 06:45:07;;;;;;;;;;;-0.70;99.90;;;-1.66;92.84;94136.84;10393904;28;1989;-85
2021/01/31 06:50:09;;;;;;;;;;;0.90;99.90;;;-1.66;92.61;94135.00;10383975;28;2475;-82
2021/01/31 06:55:11;;;;;;;;;;;-0.40;99.90;;;-1.59;93.45;94140.16;10400803;28;2503;-82
2021/01/31 07:00:13;;;;;;;;;;;-0.60;99.90;;;-1.63;92.11;94142.44;10398223;28;3015;-84
2021/01/31 07:05:15;;;;;;;;;;;1.70;99.90;;;-1.60;92.77;94140.34;10411588;28;2160;-83
2021/01/31 07:10:17;;;;;;;;;;;0.10;99.90;;;-1.58;92.31;94154.91;10418025;28;2443;-83
2021/01/31 07:15:19;;;;;;;;;;;-0.40;99.90;;;-1.49;92.12;94153.47;10421464;28;2368;-84
2021/01/31 07:20:21;;;;;;;;;;;-0.50;99.90;;;-1.50;91.43;94151.09;10435376;28;2535;-84
2021/01/31 07:25:23;;;;;;;;;;;-0.50;99.90;;;-1.41;91.50;94155.72;10409884;28;2428;-82
2021/01/31 07:30:25;;;;;;;;;;;-0.40;99.90;;;-1.44;90.32;94160.66;10433376;28;2195;-83
2021/01/31 07:35:28;;;;;;;;;;;0.00;99.90;;;-1.43;90.31;94157.00;10418667;28;2451;-85
2021/01/31 07:40:31;;;;;;;;;;;-0.40;99.90;;;-1.58;90.41;94169.94;10430187;28;2475;-81
2021/01/31 07:45:33;;;;;;;;;;;0.70;99.90;;;-1.44;91.00;94185.19;10436629;28;2380;-83
2021/01/31 07:50:39;;;;;;;;;;;-0.50;99.90;;;-1.41;91.75;94197.09;10441184;28;2396;-82
2021/01/31 07:55:42;;;;;;;;;;;-0.20;99.90;;;-1.40;91.46;94209.22;10428120;28;2400;-82
2021/01/31 08:00:44;;;;;;;;;;;-0.30;99.90;;;-1.48;89.84;94207.78;10445048;28;2478;-82
2021/01/31 08:05:46;;;;;;;;;;;-0.30;99.90;;;-1.35;90.27;94211.94;10447195;28;2474;-80
2021/01/31 08:10:49;;;;;;;;;;;-0.20;99.90;;;-1.24;91.26;94210.28;10433562;28;2076;-81
2021/01/31 08:15:51;;;;;;;;;;;-0.30;99.90;;;-1.27;90.29;94211.59;10424921;28;2407;-83
2021/01/31 08:20:57;;;;;;;;;;;0.30;99.90;;;-1.39;90.80;94226.66;10419607;28;2329;-84
2021/01/31 08:26:00;;;;;;;;;;;-0.30;99.90;;;-1.31;91.02;94218.34;10420950;28;2611;-84
2021/01/31 08:31:07;;;;;;;;;;;-0.30;99.90;;;-1.41;90.04;94213.69;10454208;28;2113;-81
2021/01/31 08:36:16;;;;;;;;;;;0.40;99.90;;;-1.38;89.23;94212.44;10416441;28;2047;-83
2021/01/31 08:41:21;;;;;;;;;;;-0.50;99.90;;;-1.27;90.13;94229.22;10438217;28;2269;-80
2021/01/31 08:46:24;;;;;;;;;;;-0.30;99.90;;;-1.01;90.16;94233.09;10423742;28;2013;-80
2021/01/31 08:51:27;;;;;;;;;;;0.80;99.90;;;-1.00;90.06;94237.31;10451552;28;2581;-81
2021/01/31 08:56:33;;;;;;;;;;;0.00;99.90;;;-1.07;88.72;94245.41;10429452;28;1570;-86
2021/01/31 09:01:51;;;;;;;;;;;0.40;99.90;;;-1.18;88.79;94249.69;10433169;28;1724;-84
2021/01/31 09:06:59;;;;;;;;;;;0.90;99.90;;;-1.25;88.90;94256.94;10445892;28;1962;-85
2021/01/31 09:12:02;;;;;;;;;;;-0.20;99.90;;;-1.25;89.28;94254.31;10440183;28;1881;-85
2021/01/31 09:17:05;;;;;;;;;;;-0.20;99.90;;;-1.21;89.02;94252.81;10428529;28;1486;-82
2021/01/31 09:22:07;;;;;;;;;;;-0.20;99.90;;;-1.10;88.92;94261.69;10450380;28;1541;-83
2021/01/31 09:27:09;;;;;;;;;;;1.80;99.90;;;-0.94;89.18;94257.47;10456051;28;1914;-84
2021/01/31 09:32:11;;;;;;;;;;;0.00;99.90;;;-0.99;88.90;94257.38;10421453;28;1612;-84
2021/01/31 09:37:13;;;;;;;;;;;0.00;99.90;;;-0.87;87.63;94266.03;10445660;28;1749;-83
2021/01/31 09:42:16;;;;;;;;;;;0.50;99.90;;;-0.76;87.52;94262.53;10425310;28;1593;-85
2021/01/31 09:47:22;;;;;;;;;;;0.30;99.90;;;-0.92;87.29;94260.66;10425533;28;1938;-84
2021/01/31 09:52:35;;;;;;;;;;;0.20;99.90;;;-0.66;87.36;94261.88;10431076;28;1748;-85
2021/01/31 09:57:37;;;;;;;;;;;0.50;99.90;;;-0.64;86.97;94267.69;10422813;28;1354;-85
2021/01/31 10:02:39;;;;;;;;;;;0.40;99.90;;;-0.76;86.79;94267.81;10433168;28;1913;-85
2021/01/31 10:07:41;;;;;;;;;;;0.30;99.90;;;-0.92;86.99;94279.94;10422371;28;1284;-85
2021/01/31 10:12:43;;;;;;;;;;;1.10;99.90;;;-0.63;86.17;94271.97;10421506;28;1598;-85
2021/01/31 10:17:45;;;;;;;;;;;0.30;99.90;;;-0.74;86.12;94276.25;10445737;28;1331;-86
2021/01/31 10:22:47;;;;;;;;;;;0.30;99.90;;;-0.79;85.91;94281.44;10397340;28;1878;-85
2021/01/31 10:27:50;;;;;;;;;;;0.80;99.90;;;-0.83;86.52;94288.22;10425150;28;1755;-86
2021/01/31 10:32:52;;;;;;;;;;;0.20;99.90;;;-0.64;86.20;94286.97;10446836;28;1376;-85
2021/01/31 10:37:54;;;;;;;;;;;0.30;99.90;;;-0.65;87.18;94285.38;10401974;28;1588;-84
2021/01/31 10:42:56;;;;;;;;;;;0.40;99.90;;;-0.67;88.62;94279.53;10418538;28;1886;-87
2021/01/31 10:47:58;;;;;;;;;;;0.80;99.90;;;-0.70;87.24;94271.28;10432128;28;1260;-85
2021/01/31 10:53:08;;;;;;;;;;;1.70;99.90;;;-0.38;87.95;94282.06;10440379;28;1598;-85
2021/01/31 10:59:05;;;;;;;;;;;;;;;;;;;;;
2021/01/31 11:05:00;;;;;;;;;;;0.50;99.90;;;-0.55;87.46;94279.47;10414542;28;1967;-83
2021/01/31 11:45:29;;;;;;;;;;;2.10;99.90;;;-0.38;86.56;94284.72;10339461;28;1895;-85
2021/01/31 11:50:59;;;;;;;;;;;2.20;99.90;;;-0.45;85.74;94278.81;10417690;28;1452;-85
2021/01/31 12:08:10;;;;;;;;;;;0.70;99.90;;;-0.37;85.42;94259.94;10438029;28;1817;-84
2021/01/31 12:13:58;;;;;;;;;;;0.70;99.90;;;-0.30;86.27;94244.72;10317005;28;1704;-85
2021/01/31 12:19:01;;;;;;;;;;;0.60;99.90;;;-0.30;86.76;94240.22;10316446;28;1353;-86
2021/01/31 12:24:04;;;;;;;;;;;0.70;99.90;;;-0.17;86.16;94220.59;10312065;28;1915;-86
2021/01/31 12:29:10;;;;;;;;;;;0.70;99.90;;;0.08;85.16;94229.88;10310924;28;1576;-85
2021/01/31 12:34:13;;;;;;;;;;;2.50;99.90;;;0.14;85.29;94218.34;10310790;28;1274;-86
2021/01/31 12:39:19;;;;;;;;;;;1.10;99.90;;;0.30;84.48;94206.88;10323766;28;1569;-85
2021/01/31 12:44:22;;;;;;;;;;;1.10;99.90;;;0.43;84.93;94205.69;10299566;28;1898;-88
2021/01/31 12:49:24;;;;;;;;;;;1.30;99.90;;;0.46;84.24;94200.72;10378424;28;1330;-87
2021/01/31 12:54:36;;;;;;;;;;;1.40;99.90;;;0.35;85.33;94199.00;10409418;28;1561;-85
2021/01/31 12:59:43;;;;;;;;;;;1.40;99.90;;;0.39;85.46;94188.75;10450426;28;1221;-85
2021/01/31 13:04:48;;;;;;;;;;;2.10;99.90;;;0.72;85.61;94187.75;10415002;28;1946;-87
2021/01/31 13:09:53;;;;;;;;;;;1.60;99.90;;;0.74;84.20;94190.94;10409385;28;1657;-84
2021/01/31 13:15:02;;;;;;;;;;;3.20;99.90;;;0.85;84.23;94174.09;10412458;28;1665;-85
2021/01/31 13:20:23;;;;;;;;;;;2.70;99.90;;;0.89;84.19;94177.84;10415132;28;1348;-86
2021/01/31 13:25:32;;;;;;;;;;;3.40;99.90;;;0.72;83.94;94174.53;10409291;28;1895;-85
2021/01/31 13:30:44;;;;;;;;;;;1.80;99.90;;;0.59;85.54;94164.34;10422449;28;1400;-85
2021/01/31 13:35:58;;;;;;;;;;;3.00;99.90;;;0.78;85.91;94171.66;10469881;28;1557;-86
2021/01/31 13:41:09;;;;;;;;;;;1.60;99.90;;;0.80;84.71;94172.22;10463971;28;2552;-86
2021/01/31 13:46:12;;;;;;;;;;;1.80;99.90;;;0.52;86.18;94183.88;10428200;28;1969;-85
2021/01/31 13:51:34;;;;;;;;;;;1.70;99.90;;;0.65;86.19;94177.38;10446304;28;1495;-85
2021/01/31 13:56:38;;;;;;;;;;;2.90;99.90;;;0.35;86.88;94188.44;10478768;28;1224;-86
2021/01/31 14:01:48;;;;;;;;;;;2.60;99.90;;;0.25;87.17;94189.16;10439400;28;1280;-83
2021/01/31 14:06:59;;;;;;;;;;;1.30;99.90;;;0.01;88.32;94185.16;10424319;28;1977;-84
2021/01/31 14:12:08;;;;;;;;;;;1.60;99.90;;;0.17;88.37;94164.97;10429193;28;1393;-83
2021/01/31 14:17:10;;;;;;;;;;;2.40;99.90;;;0.32;88.65;94159.88;10457458;28;1932;-86
2021/01/31 14:22:16;;;;;;;;;;;2.90;99.90;;;0.33;86.95;94161.47;10422718;28;1557;-85
2021/01/31 14:27:18;;;;;;;;;;;2.20;99.90;;;0.10;87.08;94162.53;10449016;28;1890;-86
2021/01/31 14:32:30;;;;;;;;;;;3.30;99.90;;;0.04;87.96;94166.16;10438546;28;1433;-86
2021/01/31 14:37:38;;;;;;;;;;;1.00;99.90;;;0.09;88.38;94162.78;10437315;28;1342;-87
2021/01/31 14:42:41;;;;;;;;;;;1.10;99.90;;;0.35;88.09;94155.91;10439056;28;1547;-85
2021/01/31 14:47:46;;;;;;;;;;;2.60;99.90;;;0.25;86.40;94173.28;10443189;28;1894;-87
2021/01/31 14:52:56;;;;;;;;;;;2.70;99.90;;;0.20;86.47;94167.16;10449637;28;1269;-86
2021/01/31 14:58:19;;;;;;;;;;;1.20;99.90;;;0.07;87.45;94162.25;10439257;28;1541;-85
2021/01/31 15:03:48;;;;;;;;;;;1.20;99.90;;;-0.06;88.12;94152.84;10403906;28;1963;-84
2021/01/31 15:08:53;;;;;;;;;;;1.60;99.90;;;-0.16;88.41;94150.88;10444414;28;1338;-85
2021/01/31 15:14:10;;;;;;;;;;;1.00;99.90;;;-0.14;88.75;94146.13;10429549;28;1611;-85
2021/01/31 15:19:17;;;;;;;;;;;0.80;99.90;;;-0.21;88.78;94142.91;10459818;28;2334;-83
2021/01/31 15:29:55;;;;;;;;;;;0.90;99.90;;;-0.16;89.30;94153.53;10421585;28;1497;-85
2021/01/31 15:34:58;;;;;;;;;;;2.20;99.90;;;-0.15;89.72;94156.97;10418034;28;1831;-85
2021/01/31 15:40:06;;;;;;;;;;;0.90;99.90;;;-0.17;89.53;94149.28;10444873;28;1483;-84
2021/01/31 15:45:14;;;;;;;;;;;0.80;99.90;;;-0.14;88.71;94143.50;10425377;28;1989;-85
2021/01/31 15:50:24;;;;;;;;;;;2.20;99.90;;;-0.23;88.66;94147.63;10425925;28;1467;-86
2021/01/31 15:55:27;;;;;;;;;;;2.40;99.90;;;-0.25;89.22;94152.38;10430713;28;1183;-85
2021/01/31 16:00:39;;;;;;;;;;;0.70;99.90;;;-0.22;89.49;94151.88;10440968;28;1520;-84
2021/01/31 16:05:51;;;;;;;;;;;1.60;99.90;;;-0.20;88.93;94156.91;10430916;28;1891;-85
2021/01/31 16:11:00;;;;;;;;;;;0.70;99.90;;;-0.10;89.65;94157.03;10421501;28;1394;-87
2021/01/31 16:16:18;;;;;;;;;;;1.50;99.90;;;-0.24;88.55;94153.97;10426314;28;1590;-86
2021/01/31 16:21:41;;;;;;;;;;;1.10;99.90;;;-0.27;89.71;94146.50;10426121;28;1380;-85
2021/01/31 16:26:52;;;;;;;;;;;1.00;99.90;;;-0.24;90.17;94127.56;10422395;28;1895;-86
2021/01/31 16:32:03;;;;;;;;;;;3.00;99.90;;;-0.20;90.11;94133.91;10449827;28;2268;-83
2021/01/31 16:37:13;;;;;;;;;;;2.90;99.90;;;-0.24;90.18;94142.59;10474648;28;1976;-82
2021/01/31 16:42:19;;;;;;;;;;;3.10;99.90;;;-0.23;90.52;94134.44;10474172;28;1917;-84
2021/01/31 16:47:21;;;;;;;;;;;1.70;99.90;;;-0.23;90.97;94131.00;10438534;28;1944;-87
2021/01/31 16:52:23;;;;;;;;;;;2.10;99.90;;;-0.30;90.87;94117.97;10454492;28;2395;-83
2021/01/31 16:57:28;;;;;;;;;;;1.30;99.90;;;-0.31;91.26;94119.03;10468967;28;2051;-86
2021/01/31 17:02:30;;;;;;;;;;;2.90;99.90;;;-0.28;91.60;94118.53;10428622;28;2325;-86
2021/01/31 17:07:33;;;;;;;;;;;2.70;99.90;;;-0.27;91.68;94112.19;10462957;28;2622;-85
2021/01/31 17:12:35;;;;;;;;;;;0.80;99.90;;;-0.20;91.66;94112.78;10471013;28;2187;-83
2021/01/31 17:17:37;;;;;;;;;;;1.20;99.90;;;-0.16;91.11;94113.91;10431502;28;1929;-86
2021/01/31 17:22:39;;;;;;;;;;;0.90;99.90;;;-0.01;91.04;94110.63;10442943;28;2400;-86
2021/01/31 17:27:41;;;;;;;;;;;2.60;99.90;;;0.05;90.17;94106.19;10424606;28;2270;-87
2021/01/31 17:32:43;;;;;;;;;;;2.10;99.90;;;0.06;90.28;94095.38;10462285;28;2236;-86
2021/01/31 17:37:48;;;;;;;;;;;1.10;99.90;;;-0.07;90.57;94101.84;10434785;28;2324;-86
2021/01/31 17:42:55;;;;;;;;;;;1.10;99.90;;;-0.01;90.99;94095.56;10436706;28;2228;-85
2021/01/31 17:47:57;;;;;;;;;;;1.90;99.90;;;0.02;90.76;94096.94;10454197;28;2280;-86
2021/01/31 17:53:03;;;;;;;;;;;2.70;99.90;;;-0.06;90.35;94092.91;10416833;28;2253;-86
2021/01/31 17:58:06;;;;;;;;;;;1.70;99.90;;;-0.08;90.62;94091.53;10425085;28;1859;-87
2021/01/31 18:03:10;;;;;;;;;;;1.00;99.90;;;-0.18;90.71;94072.97;10421671;28;2336;-87
2021/01/31 18:08:13;;;;;;;;;;;2.30;99.90;;;-0.15;91.45;94080.38;10428160;28;1975;-84
2021/01/31 18:13:15;;;;;;;;;;;2.30;99.90;;;0.00;91.23;94091.13;10418065;28;2289;-86
2021/01/31 18:18:19;;;;;;;;;;;1.60;99.90;;;-0.10;90.24;94075.94;10386095;28;2282;-89
2021/01/31 18:23:21;;;;;;;;;;;1.30;99.90;;;-0.17;90.73;94071.91;10383442;28;2352;-87
2021/01/31 18:28:24;;;;;;;;;;;0.90;99.90;;;-0.12;90.82;94067.47;10426412;28;2292;-85
2021/01/31 18:33:26;;;;;;;;;;;2.20;99.90;;;-0.12;91.05;94056.91;10406764;28;2314;-87
2021/01/31 18:38:28;;;;;;;;;;;0.90;99.90;;;-0.13;90.85;94065.88;10403347;28;2753;-85
2021/01/31 18:43:32;;;;;;;;;;;1.00;99.90;;;-0.04;91.37;94060.94;10399567;28;2226;-86
2021/01/31 18:48:39;;;;;;;;;;;1.00;99.90;;;-0.05;91.03;94046.94;10415625;28;2482;-87
2021/01/31 18:53:46;;;;;;;;;;;1.60;99.90;;;-0.04;90.37;94040.63;10391959;28;1942;-86
2021/01/31 18:59:08;;;;;;;;;;;;;;;;;;;;;
2021/01/31 19:04:22;;;;;;;;;;;2.90;99.90;;;-0.09;91.07;94026.56;10418426;28;2402;-86
2021/01/31 19:09:26;;;;;;;;;;;1.00;99.90;;;-0.12;91.00;94022.59;10383322;28;2256;-86
2021/01/31 19:14:35;;;;;;;;;;;1.70;99.90;;;-0.13;91.03;94018.31;10437967;28;2455;-85
2021/01/31 19:19:41;;;;;;;;;;;0.80;99.90;;;-0.06;90.98;94008.38;10386042;28;2186;-86
2021/01/31 19:24:46;;;;;;;;;;;0.80;99.90;;;-0.06;90.51;94013.66;10365856;28;2451;-84
2021/01/31 19:29:49;;;;;;;;;;;3.10;99.90;;;0.02;90.72;94003.69;10390081;28;1944;-86
2021/01/31 19:34:51;;;;;;;;;;;1.50;99.90;;;0.08;90.03;93986.84;10418052;28;2246;-85
2021/01/31 19:39:53;;;;;;;;;;;1.10;99.90;;;0.12;90.54;93990.53;10383727;28;2320;-85
2021/01/31 19:44:55;;;;;;;;;;;2.30;99.90;;;0.08;90.61;93984.19;10385667;28;2367;-85
2021/01/31 19:49:58;;;;;;;;;;;2.30;99.90;;;0.12;90.17;93974.69;10398590;28;2494;-84
2021/01/31 19:55:06;;;;;;;;;;;1.90;99.90;;;0.10;90.35;93974.16;10381857;28;2306;-85
2021/01/31 20:00:08;;;;;;;;;;;-0.40;99.90;;;0.12;90.25;93966.75;10378654;28;2480;-84
2021/01/31 20:05:10;;;;;;;;;;;2.80;99.90;;;0.17;89.40;93961.53;10410963;28;2307;-84
2021/01/31 20:10:12;;;;;;;;;;;2.40;99.90;;;0.12;89.69;93958.84;10399474;28;2260;-84
2021/01/31 20:15:15;;;;;;;;;;;1.20;99.90;;;0.09;89.83;93956.72;10395977;28;2188;-83
2021/01/31 20:20:16;;;;;;;;;;;2.30;99.90;;;0.07;90.31;93951.69;10370741;28;2413;-84
2021/01/31 20:25:18;;;;;;;;;;;1.20;99.90;;;0.15;90.16;93947.78;10368214;28;2734;-84
2021/01/31 20:30:20;;;;;;;;;;;2.60;99.90;;;0.14;90.10;93943.56;10399638;28;2464;-84
2021/01/31 20:35:22;;;;;;;;;;;3.10;99.90;;;0.31;89.72;93935.44;10419379;28;2597;-86
2021/01/31 20:40:24;;;;;;;;;;;1.30;99.90;;;0.18;89.33;93928.75;10369239;28;2468;-85
2021/01/31 20:45:26;;;;;;;;;;;1.30;99.90;;;0.08;89.63;93921.56;10363925;28;2699;-85
2021/01/31 20:50:28;;;;;;;;;;;2.30;99.90;;;0.09;90.10;93923.16;10403681;28;2716;-86
2021/01/31 20:55:31;;;;;;;;;;;1.20;99.90;;;0.05;90.12;93923.91;10414708;28;1908;-83
2021/01/31 21:00:33;;;;;;;;;;;1.10;99.90;;;0.07;90.32;93903.34;10398689;28;2320;-87
2021/01/31 21:05:38;;;;;;;;;;;1.90;99.90;;;0.07;89.92;93900.69;10378251;28;2234;-86
2021/01/31 21:10:40;;;;;;;;;;;3.00;99.90;;;0.07;90.16;93890.94;10376873;28;2059;-88
2021/01/31 21:15:42;;;;;;;;;;;3.00;99.90;;;0.05;89.92;93889.56;10417326;28;2317;-87
2021/01/31 21:20:44;;;;;;;;;;;2.40;99.90;;;0.07;90.21;93887.50;10383370;28;2077;-87
2021/01/31 21:25:49;;;;;;;;;;;1.10;99.90;;;0.13;89.88;93884.63;10390998;28;2432;-87
2021/01/31 21:30:51;;;;;;;;;;;1.90;99.90;;;0.10;90.42;93882.47;10362682;28;2384;-86
2021/01/31 21:35:57;;;;;;;;;;;1.40;99.90;;;0.03;90.53;93876.63;10372042;28;2281;-86
2021/01/31 21:41:14;;;;;;;;;;;1.10;99.90;;;-0.03;89.96;93865.22;10371008;28;2278;-86
2021/01/31 21:46:21;;;;;;;;;;;1.10;99.90;;;-0.13;90.39;93859.88;10366934;28;2254;-87
2021/01/31 21:51:41;;;;;;;;;;;;;;;;;;;;;
2021/01/31 21:56:43;;;;;;;;;;;1.50;99.90;;;-0.12;90.47;93861.47;10399217;28;2030;-87
2021/01/31 22:01:45;;;;;;;;;;;1.80;99.90;;;-0.08;90.57;93867.81;10378490;28;1911;-86
2021/01/31 22:06:47;;;;;;;;;;;3.00;99.90;;;-0.22;89.99;93861.41;10386695;28;2431;-85
2021/01/31 22:11:49;;;;;;;;;;;1.80;99.90;;;-0.21;90.45;93852.41;10382393;28;2372;-86
2021/01/31 22:16:51;;;;;;;;;;;0.80;99.90;;;-0.28;91.11;93850.00;10396471;28;2276;-86
2021/01/31 22:21:54;;;;;;;;;;;0.80;99.90;;;-0.16;91.23;93854.31;10395196;28;2485;-84
2021/01/31 22:26:55;;;;;;;;;;;0.90;99.90;;;-0.09;91.04;93855.69;10407873;28;2344;-86
2021/01/31 22:31:58;;;;;;;;;;;1.30;99.90;;;-0.01;90.83;93849.13;10389823;28;1996;-85
2021/01/31 22:37:00;;;;;;;;;;;2.40;99.90;;;-0.01;89.93;93844.63;10406062;28;2308;-86
2021/01/31 22:42:05;;;;;;;;;;;1.00;99.90;;;-0.07;90.28;93848.28;10388816;28;2245;-84
2021/01/31 22:47:06;;;;;;;;;;;1.00;99.90;;;-0.02;90.36;93845.69;10391598;28;2365;-86
2021/01/31 22:52:08;;;;;;;;;;;1.60;99.90;;;-0.04;90.32;93842.50;10373368;28;2273;-82
2021/01/31 22:57:10;;;;;;;;;;;1.10;99.90;;;-0.04;90.30;93826.66;10392035;28;2322;-85
2021/01/31 23:02:12;;;;;;;;;;;1.90;99.90;;;-0.10;90.15;93827.69;10378793;28;2304;-85
2021/01/31 23:07:14;;;;;;;;;;;1.90;99.90;;;-0.12;90.19;93826.34;10369734;28;2440;-85
2021/01/31 23:12:16;;;;;;;;;;;2.80;99.90;;;-0.08;90.46;93819.50;10392700;28;2213;-83
2021/01/31 23:17:18;;;;;;;;;;;1.40;99.90;;;-0.19;89.76;93802.81;10374319;28;2084;-86
2021/01/31 23:22:20;;;;;;;;;;;1.00;99.90;;;-0.30;90.76;93811.72;10427408;28;2032;-86
2021/01/31 23:27:22;;;;;;;;;;;0.80;99.90;;;-0.27;90.72;93797.97;10406871;28;2191;-85
2021/01/31 23:32:23;;;;;;;;;;;0.80;99.90;;;-0.35;90.96;93793.19;10405769;28;1726;-85
2021/01/31 23:37:25;;;;;;;;;;;0.80;99.90;;;-0.43;91.53;93785.75;10384634;28;2238;-85
2021/01/31 23:42:27;;;;;;;;;;;0.70;99.90;;;-0.36;91.27;93771.28;10389551;28;2035;-84
2021/01/31 23:47:29;;;;;;;;;;;0.80;99.90;;;-0.35;91.31;93761.50;10433985;28;1985;-84
2021/01/31 23:52:31;;;;;;;;;;;2.10;99.90;;;-0.28;91.75;93757.59;10402853;28;2238;-87
2021/01/31 23:57:33;;;;;;;;;;;1.40;99.90;;;-0.31;91.14;93747.56;10391297;28;2227;-86
